sensor_id;sensor_type;location;lat;lon;timestamp;pressure;altitude;pressure_sealevel;temperature;humidity
20394;BME280;10356;50.544;9.642;2022-08-27T00:00:41;97951.47;;;20.51;91.73
20394;BME280;10356;50.544;9.642;2022-08-27T00:03:10;97951.84;;;20.48;91.80
20394;BME280;10356;50.544;9.642;2022-08-27T00:05:37;97952.31;;;20.52;91.37
20394;BME280;10356;50.544;9.642;2022-08-27T00:08:04;97950.84;;;20.49;91.51
20394;BME280;10356;50.544;9.642;2022-08-27T00:10:30;97946.94;;;20.45;91.66
20394;BME280;10356;50.544;9.642;2022-08-27T00:12:58;97939.94;;;20.38;91.58
20394;BME280;10356;50.544;9.642;2022-08-27T00:15:25;97948.50;;;20.40;91.65
20394;BME280;10356;50.544;9.642;2022-08-27T00:17:51;97944.59;;;20.36;92.09
20394;BME280;10356;50.544;9.642;2022-08-27T00:20:21;97945.78;;;20.33;92.69
20394;BME280;10356;50.544;9.642;2022-08-27T00:22:49;97944.78;;;20.34;92.45
20394;BME280;10356;50.544;9.642;2022-08-27T00:25:16;97945.97;;;20.32;92.55
20394;BME280;10356;50.544;9.642;2022-08-27T00:27:43;97950.25;;;20.33;92.64
20394;BME280;10356;50.544;9.642;2022-08-27T00:30:13;97951.28;;;20.32;92.75
20394;BME280;10356;50.544;9.642;2022-08-27T00:32:41;97951.16;;;20.40;92.15
20394;BME280;10356;50.544;9.642;2022-08-27T00:35:08;97948.69;;;20.38;92.32
20394;BME280;10356;50.544;9.642;2022-08-27T00:37:36;97946.84;;;20.39;92.33
20394;BME280;10356;50.544;9.642;2022-08-27T00:40:04;97954.25;;;20.43;92.13
20394;BME280;10356;50.544;9.642;2022-08-27T00:42:31;97946.66;;;20.40;92.13
20394;BME280;10356;50.544;9.642;2022-08-27T00:44:58;97956.19;;;20.35;92.68
20394;BME280;10356;50.544;9.642;2022-08-27T00:47:27;97946.66;;;20.40;92.06
20394;BME280;10356;50.544;9.642;2022-08-27T00:49:57;97956.09;;;20.28;92.59
20394;BME280;10356;50.544;9.642;2022-08-27T00:52:28;97952.59;;;20.42;92.04
20394;BME280;10356;50.544;9.642;2022-08-27T00:55:00;97951.41;;;20.45;91.85
20394;BME280;10356;50.544;9.642;2022-08-27T00:57:29;97947.28;;;20.42;91.85
20394;BME280;10356;50.544;9.642;2022-08-27T00:59:56;97951.31;;;20.38;91.96
20394;BME280;10356;50.544;9.642;2022-08-27T01:02:22;97950.97;;;20.41;91.55
20394;BME280;10356;50.544;9.642;2022-08-27T01:04:55;97948.31;;;20.41;92.04
20394;BME280;10356;50.544;9.642;2022-08-27T01:07:25;97939.13;;;20.37;91.75
20394;BME280;10356;50.544;9.642;2022-08-27T01:09:54;97942.50;;;20.31;92.30
20394;BME280;10356;50.544;9.642;2022-08-27T01:12:24;97946.31;;;20.43;91.33
20394;BME280;10356;50.544;9.642;2022-08-27T01:14:52;97943.25;;;20.46;91.26
20394;BME280;10356;50.544;9.642;2022-08-27T01:17:18;97948.56;;;20.46;91.40
20394;BME280;10356;50.544;9.642;2022-08-27T01:19:48;97945.56;;;20.49;90.87
20394;BME280;10356;50.544;9.642;2022-08-27T01:22:24;97949.47;;;20.53;90.17
20394;BME280;10356;50.544;9.642;2022-08-27T01:24:57;97959.22;;;20.53;90.52
20394;BME280;10356;50.544;9.642;2022-08-27T01:27:26;97963.31;;;20.55;90.18
20394;BME280;10356;50.544;9.642;2022-08-27T01:29:53;97955.59;;;20.54;90.62
20394;BME280;10356;50.544;9.642;2022-08-27T01:32:23;97961.66;;;20.54;90.46
20394;BME280;10356;50.544;9.642;2022-08-27T01:34:51;97959.22;;;20.53;90.56
20394;BME280;10356;50.544;9.642;2022-08-27T01:37:18;97970.63;;;20.53;90.20
20394;BME280;10356;50.544;9.642;2022-08-27T01:39:46;97965.69;;;20.50;90.63
20394;BME280;10356;50.544;9.642;2022-08-27T01:42:18;97969.69;;;20.40;90.58
20394;BME280;10356;50.544;9.642;2022-08-27T01:44:50;97970.94;;;20.44;90.27
20394;BME280;10356;50.544;9.642;2022-08-27T01:47:18;97966.03;;;20.41;90.71
20394;BME280;10356;50.544;9.642;2022-08-27T01:49:45;97973.72;;;20.36;91.20
20394;BME280;10356;50.544;9.642;2022-08-27T01:52:13;97964.88;;;20.29;91.37
20394;BME280;10356;50.544;9.642;2022-08-27T01:54:40;97973.63;;;20.29;92.14
20394;BME280;10356;50.544;9.642;2022-08-27T01:57:07;97967.16;;;20.32;92.18
20394;BME280;10356;50.544;9.642;2022-08-27T01:59:35;97963.28;;;20.34;91.60
20394;BME280;10356;50.544;9.642;2022-08-27T02:02:03;97970.47;;;20.40;91.17
20394;BME280;10356;50.544;9.642;2022-08-27T02:04:30;97969.94;;;20.45;90.95
20394;BME280;10356;50.544;9.642;2022-08-27T02:06:58;97976.25;;;20.44;91.22
20394;BME280;10356;50.544;9.642;2022-08-27T02:09:25;97973.75;;;20.42;90.96
20394;BME280;10356;50.544;9.642;2022-08-27T02:11:51;97967.16;;;20.32;91.94
20394;BME280;10356;50.544;9.642;2022-08-27T02:14:18;97972.69;;;20.37;91.54
20394;BME280;10356;50.544;9.642;2022-08-27T02:16:47;97971.22;;;20.34;91.32
20394;BME280;10356;50.544;9.642;2022-08-27T02:19:14;97978.63;;;20.39;91.32
20394;BME280;10356;50.544;9.642;2022-08-27T02:21:41;97970.69;;;20.39;91.22
20394;BME280;10356;50.544;9.642;2022-08-27T02:24:08;97972.34;;;20.40;91.26
20394;BME280;10356;50.544;9.642;2022-08-27T02:26:35;97977.44;;;20.41;90.92
20394;BME280;10356;50.544;9.642;2022-08-27T02:29:02;97973.13;;;20.40;90.88
20394;BME280;10356;50.544;9.642;2022-08-27T02:31:29;97968.66;;;20.41;90.93
20394;BME280;10356;50.544;9.642;2022-08-27T02:33:57;97979.06;;;20.42;90.77
20394;BME280;10356;50.544;9.642;2022-08-27T02:36:24;97977.44;;;20.41;91.01
20394;BME280;10356;50.544;9.642;2022-08-27T02:38:51;97965.66;;;20.44;91.08
20394;BME280;10356;50.544;9.642;2022-08-27T02:41:17;97970.03;;;20.37;91.58
20394;BME280;10356;50.544;9.642;2022-08-27T02:43:44;97972.44;;;20.32;92.17
20394;BME280;10356;50.544;9.642;2022-08-27T02:46:11;97967.94;;;20.32;92.00
20394;BME280;10356;50.544;9.642;2022-08-27T02:48:38;97979.56;;;20.31;91.88
20394;BME280;10356;50.544;9.642;2022-08-27T02:51:07;97971.00;;;20.29;92.35
20394;BME280;10356;50.544;9.642;2022-08-27T02:53:34;97969.16;;;20.30;92.71
20394;BME280;10356;50.544;9.642;2022-08-27T02:56:02;97965.34;;;20.18;93.81
20394;BME280;10356;50.544;9.642;2022-08-27T02:58:29;97962.13;;;20.22;92.90
20394;BME280;10356;50.544;9.642;2022-08-27T03:00:57;97967.81;;;20.19;93.18
20394;BME280;10356;50.544;9.642;2022-08-27T03:03:25;97965.81;;;20.21;93.52
20394;BME280;10356;50.544;9.642;2022-08-27T03:05:52;97968.06;;;20.24;92.75
20394;BME280;10356;50.544;9.642;2022-08-27T03:08:20;97963.59;;;20.25;92.76
20394;BME280;10356;50.544;9.642;2022-08-27T03:10:47;97964.31;;;20.33;92.22
20394;BME280;10356;50.544;9.642;2022-08-27T03:13:14;97956.94;;;20.29;92.25
20394;BME280;10356;50.544;9.642;2022-08-27T03:15:41;97953.72;;;20.33;92.10
20394;BME280;10356;50.544;9.642;2022-08-27T03:18:07;97958.94;;;20.27;92.41
20394;BME280;10356;50.544;9.642;2022-08-27T03:20:46;97954.09;;;20.30;92.23
20394;BME280;10356;50.544;9.642;2022-08-27T03:23:14;97955.09;;;20.29;92.67
20394;BME280;10356;50.544;9.642;2022-08-27T03:25:47;97959.97;;;20.26;92.99
20394;BME280;10356;50.544;9.642;2022-08-27T03:28:15;97958.13;;;20.26;92.59
20394;BME280;10356;50.544;9.642;2022-08-27T03:30:42;97953.09;;;20.17;93.01
20394;BME280;10356;50.544;9.642;2022-08-27T03:33:11;97956.28;;;20.12;93.61
20394;BME280;10356;50.544;9.642;2022-08-27T03:35:37;97959.88;;;20.19;93.35
20394;BME280;10356;50.544;9.642;2022-08-27T03:38:04;97954.91;;;20.16;93.34
20394;BME280;10356;50.544;9.642;2022-08-27T03:40:31;97958.84;;;20.20;93.25
20394;BME280;10356;50.544;9.642;2022-08-27T03:42:59;97950.56;;;20.23;92.86
20394;BME280;10356;50.544;9.642;2022-08-27T03:45:25;97962.13;;;20.22;92.66
20394;BME280;10356;50.544;9.642;2022-08-27T03:47:52;97956.50;;;20.25;92.67
20394;BME280;10356;50.544;9.642;2022-08-27T03:50:19;97960.94;;;20.25;92.50
20394;BME280;10356;50.544;9.642;2022-08-27T03:52:45;97959.22;;;20.17;93.41
20394;BME280;10356;50.544;9.642;2022-08-27T03:55:13;97958.38;;;20.17;92.69
20394;BME280;10356;50.544;9.642;2022-08-27T03:57:39;97958.50;;;20.23;92.72
20394;BME280;10356;50.544;9.642;2022-08-27T04:00:09;97958.38;;;20.17;93.18
20394;BME280;10356;50.544;9.642;2022-08-27T04:02:37;97958.84;;;20.20;93.33
20394;BME280;10356;50.544;9.642;2022-08-27T04:05:04;97962.53;;;20.19;93.80
20394;BME280;10356;50.544;9.642;2022-08-27T04:07:32;97968.16;;;20.16;93.24
20394;BME280;10356;50.544;9.642;2022-08-27T04:09:58;97962.13;;;20.22;92.54
20394;BME280;10356;50.544;9.642;2022-08-27T04:12:25;97964.97;;;20.21;93.18
20394;BME280;10356;50.544;9.642;2022-08-27T04:14:51;97959.03;;;20.19;93.28
20394;BME280;10356;50.544;9.642;2022-08-27T04:17:20;97964.00;;;20.22;92.48
20394;BME280;10356;50.544;9.642;2022-08-27T04:19:46;97956.06;;;20.22;92.21
20394;BME280;10356;50.544;9.642;2022-08-27T04:22:13;97965.81;;;20.21;92.41
20394;BME280;10356;50.544;9.642;2022-08-27T04:24:40;97962.69;;;20.18;92.58
20394;BME280;10356;50.544;9.642;2022-08-27T04:27:07;97966.13;;;20.18;92.20
20394;BME280;10356;50.544;9.642;2022-08-27T04:29:35;97975.00;;;20.25;91.95
20394;BME280;10356;50.544;9.642;2022-08-27T04:32:02;97970.91;;;20.23;91.76
20394;BME280;10356;50.544;9.642;2022-08-27T04:34:30;97978.41;;;20.19;92.09
20394;BME280;10356;50.544;9.642;2022-08-27T04:36:58;97979.13;;;20.13;92.59
20394;BME280;10356;50.544;9.642;2022-08-27T04:39:26;97985.88;;;20.16;91.96
20394;BME280;10356;50.544;9.642;2022-08-27T04:41:54;97981.88;;;20.05;92.40
20394;BME280;10356;50.544;9.642;2022-08-27T04:44:21;97990.44;;;20.07;92.27
20394;BME280;10356;50.544;9.642;2022-08-27T04:46:48;97984.75;;;20.10;92.01
20394;BME280;10356;50.544;9.642;2022-08-27T04:49:19;97990.34;;;20.15;91.78
20394;BME280;10356;50.544;9.642;2022-08-27T04:51:47;97995.72;;;20.07;91.94
20394;BME280;10356;50.544;9.642;2022-08-27T04:54:14;97990.78;;;20.04;92.65
20394;BME280;10356;50.544;9.642;2022-08-27T04:56:41;97981.47;;;20.08;92.45
20394;BME280;10356;50.544;9.642;2022-08-27T04:59:08;97989.69;;;20.13;91.77
20394;BME280;10356;50.544;9.642;2022-08-27T05:01:36;97997.63;;;20.13;91.53
20394;BME280;10356;50.544;9.642;2022-08-27T05:04:03;97990.44;;;20.07;92.14
20394;BME280;10356;50.544;9.642;2022-08-27T05:06:30;98002.91;;;20.13;92.39
20394;BME280;10356;50.544;9.642;2022-08-27T05:08:58;98000.00;;;20.08;92.78
20394;BME280;10356;50.544;9.642;2022-08-27T05:11:26;97995.91;;;20.05;93.17
20394;BME280;10356;50.544;9.642;2022-08-27T05:13:57;98004.28;;;20.09;92.88
20394;BME280;10356;50.544;9.642;2022-08-27T05:16:24;98005.47;;;20.06;92.87
20394;BME280;10356;50.544;9.642;2022-08-27T05:18:51;98006.75;;;20.10;92.83
20394;BME280;10356;50.544;9.642;2022-08-27T05:21:21;98003.56;;;20.15;91.56
20394;BME280;10356;50.544;9.642;2022-08-27T05:23:48;98012.47;;;20.14;91.72
20394;BME280;10356;50.544;9.642;2022-08-27T05:26:17;98008.16;;;20.21;91.18
20394;BME280;10356;50.544;9.642;2022-08-27T05:28:44;98012.81;;;20.19;90.62
20394;BME280;10356;50.544;9.642;2022-08-27T05:31:12;98014.69;;;20.10;90.62
20394;BME280;10356;50.544;9.642;2022-08-27T05:33:39;98009.41;;;20.10;91.22
20394;BME280;10356;50.544;9.642;2022-08-27T05:36:14;98009.50;;;20.02;91.71
20394;BME280;10356;50.544;9.642;2022-08-27T05:38:40;98008.66;;;20.02;90.92
20394;BME280;10356;50.544;9.642;2022-08-27T05:41:09;98007.50;;;20.04;91.70
20394;BME280;10356;50.544;9.642;2022-08-27T05:43:39;98018.06;;;20.04;91.50
20394;BME280;10356;50.544;9.642;2022-08-27T05:46:09;98013.22;;;20.08;91.70
20394;BME280;10356;50.544;9.642;2022-08-27T05:48:37;98014.50;;;20.12;91.03
20394;BME280;10356;50.544;9.642;2022-08-27T05:51:08;98009.84;;;20.14;91.04
20394;BME280;10356;50.544;9.642;2022-08-27T05:53:35;98006.94;;;20.09;91.74
20394;BME280;10356;50.544;9.642;2022-08-27T05:56:02;98007.94;;;20.08;91.97
20394;BME280;10356;50.544;9.642;2022-08-27T05:58:29;98014.78;;;20.02;91.98
20394;BME280;10356;50.544;9.642;2022-08-27T06:01:14;98021.63;;;20.12;91.63
20394;BME280;10356;50.544;9.642;2022-08-27T06:03:42;98020.63;;;20.13;91.67
20394;BME280;10356;50.544;9.642;2022-08-27T06:06:11;98016.16;;;20.13;91.08
20394;BME280;10356;50.544;9.642;2022-08-27T06:08:38;98023.81;;;20.08;91.44
20394;BME280;10356;50.544;9.642;2022-08-27T06:11:05;98024.19;;;20.05;91.54
20394;BME280;10356;50.544;9.642;2022-08-27T06:13:34;98021.56;;;20.20;90.29
20394;BME280;10356;50.544;9.642;2022-08-27T06:16:01;98025.72;;;20.14;90.71
20394;BME280;10356;50.544;9.642;2022-08-27T06:18:28;98022.53;;;20.19;90.65
20394;BME280;10356;50.544;9.642;2022-08-27T06:20:55;98023.00;;;20.07;90.74
20394;BME280;10356;50.544;9.642;2022-08-27T06:23:22;98026.94;;;20.12;91.01
20394;BME280;10356;50.544;9.642;2022-08-27T06:25:49;98024.72;;;20.15;90.82
20394;BME280;10356;50.544;9.642;2022-08-27T06:28:16;98023.00;;;20.07;91.33
20394;BME280;10356;50.544;9.642;2022-08-27T06:30:42;98016.06;;;20.06;91.85
20394;BME280;10356;50.544;9.642;2022-08-27T06:33:09;98029.47;;;20.05;91.32
20394;BME280;10356;50.544;9.642;2022-08-27T06:35:37;98020.91;;;20.03;92.07
20394;BME280;10356;50.544;9.642;2022-08-27T06:38:03;98026.03;;;20.19;90.91
20394;BME280;10356;50.544;9.642;2022-08-27T06:40:30;98033.03;;;20.27;90.22
20394;BME280;10356;50.544;9.642;2022-08-27T06:42:56;98032.59;;;20.23;90.78
20394;BME280;10356;50.544;9.642;2022-08-27T06:45:23;98028.03;;;20.32;89.78
20394;BME280;10356;50.544;9.642;2022-08-27T06:47:49;98032.16;;;20.55;89.30
20394;BME280;10356;50.544;9.642;2022-08-27T06:50:16;98026.13;;;20.61;87.62
20394;BME280;10356;50.544;9.642;2022-08-27T06:52:45;98029.78;;;20.60;88.02
20394;BME280;10356;50.544;9.642;2022-08-27T06:55:12;98031.78;;;20.58;87.90
20394;BME280;10356;50.544;9.642;2022-08-27T06:57:39;98031.56;;;20.39;89.05
20394;BME280;10356;50.544;9.642;2022-08-27T07:00:06;98036.53;;;20.48;88.78
20394;BME280;10356;50.544;9.642;2022-08-27T07:02:33;98038.84;;;20.51;89.08
20394;BME280;10356;50.544;9.642;2022-08-27T07:05:00;98031.03;;;20.29;89.59
20394;BME280;10356;50.544;9.642;2022-08-27T07:07:27;98035.78;;;20.33;89.75
20394;BME280;10356;50.544;9.642;2022-08-27T07:09:54;98043.19;;;20.23;89.97
20394;BME280;10356;50.544;9.642;2022-08-27T07:12:22;98041.06;;;20.33;89.93
20394;BME280;10356;50.544;9.642;2022-08-27T07:14:49;98043.31;;;20.36;90.27
20394;BME280;10356;50.544;9.642;2022-08-27T07:17:16;98048.47;;;20.38;89.44
20394;BME280;10356;50.544;9.642;2022-08-27T07:19:43;98049.88;;;20.40;88.82
20394;BME280;10356;50.544;9.642;2022-08-27T07:22:10;98050.28;;;20.37;89.84
20394;BME280;10356;50.544;9.642;2022-08-27T07:24:37;98051.53;;;20.41;88.95
20394;BME280;10356;50.544;9.642;2022-08-27T07:27:06;98052.47;;;20.34;89.12
20394;BME280;10356;50.544;9.642;2022-08-27T07:29:33;98056.09;;;20.18;90.53
20394;BME280;10356;50.544;9.642;2022-08-27T07:31:59;98061.00;;;20.50;88.96
20394;BME280;10356;50.544;9.642;2022-08-27T07:34:26;98055.53;;;20.66;88.20
20394;BME280;10356;50.544;9.642;2022-08-27T07:36:52;98058.06;;;20.74;86.76
20394;BME280;10356;50.544;9.642;2022-08-27T07:39:19;98064.22;;;20.81;86.76
20394;BME280;10356;50.544;9.642;2022-08-27T07:41:46;98062.59;;;20.80;86.37
20394;BME280;10356;50.544;9.642;2022-08-27T07:44:32;98066.31;;;20.86;86.09
20394;BME280;10356;50.544;9.642;2022-08-27T07:46:58;98061.63;;;21.03;86.07
20394;BME280;10356;50.544;9.642;2022-08-27T07:49:27;98066.41;;;20.92;85.26
20394;BME280;10356;50.544;9.642;2022-08-27T07:51:53;98075.31;;;21.06;85.33
20394;BME280;10356;50.544;9.642;2022-08-27T07:54:21;98070.28;;;20.75;87.02
20394;BME280;10356;50.544;9.642;2022-08-27T07:56:48;98077.84;;;20.78;86.28
20394;BME280;10356;50.544;9.642;2022-08-27T07:59:14;98078.28;;;20.46;87.88
20394;BME280;10356;50.544;9.642;2022-08-27T08:01:42;98084.72;;;20.58;88.35
20394;BME280;10356;50.544;9.642;2022-08-27T08:04:10;98089.59;;;20.55;88.04
20394;BME280;10356;50.544;9.642;2022-08-27T08:06:37;98091.75;;;20.66;87.77
20394;BME280;10356;50.544;9.642;2022-08-27T08:09:04;98091.97;;;20.85;86.41
20394;BME280;10356;50.544;9.642;2022-08-27T08:11:30;98083.53;;;20.61;87.91
20394;BME280;10356;50.544;9.642;2022-08-27T08:13:58;98097.41;;;20.63;88.05
20394;BME280;10356;50.544;9.642;2022-08-27T08:16:26;98100.88;;;20.78;88.13
20394;BME280;10356;50.544;9.642;2022-08-27T08:18:54;98090.53;;;21.19;86.28
20394;BME280;10356;50.544;9.642;2022-08-27T08:21:21;98089.75;;;21.46;84.29
20394;BME280;10356;50.544;9.642;2022-08-27T08:23:47;98097.84;;;21.38;84.74
20394;BME280;10356;50.544;9.642;2022-08-27T08:26:14;98100.09;;;21.62;83.62
20394;BME280;10356;50.544;9.642;2022-08-27T08:28:42;98093.88;;;21.48;83.45
20394;BME280;10356;50.544;9.642;2022-08-27T08:31:10;98099.53;;;21.45;83.39
20394;BME280;10356;50.544;9.642;2022-08-27T08:33:37;98101.31;;;21.38;83.92
20394;BME280;10356;50.544;9.642;2022-08-27T08:36:08;98100.03;;;21.13;84.90
20394;BME280;10356;50.544;9.642;2022-08-27T08:38:35;98097.06;;;21.02;85.77
20394;BME280;10356;50.544;9.642;2022-08-27T08:41:03;98102.03;;;21.05;85.01
20394;BME280;10356;50.544;9.642;2022-08-27T08:43:32;98105.03;;;21.44;83.76
20394;BME280;10356;50.544;9.642;2022-08-27T08:46:06;98114.00;;;21.22;84.18
20394;BME280;10356;50.544;9.642;2022-08-27T08:48:34;98108.66;;;21.01;84.91
20394;BME280;10356;50.544;9.642;2022-08-27T08:51:09;98102.09;;;20.97;85.33
20394;BME280;10356;50.544;9.642;2022-08-27T08:53:45;98105.66;;;21.04;85.31
20394;BME280;10356;50.544;9.642;2022-08-27T08:56:20;98101.38;;;21.45;83.59
20394;BME280;10356;50.544;9.642;2022-08-27T08:58:50;98103.91;;;21.53;82.54
20394;BME280;10356;50.544;9.642;2022-08-27T09:01:19;98106.44;;;21.67;81.18
20394;BME280;10356;50.544;9.642;2022-08-27T09:03:51;98114.13;;;21.35;82.73
20394;BME280;10356;50.544;9.642;2022-08-27T09:06:28;98112.97;;;21.44;82.03
20394;BME280;10356;50.544;9.642;2022-08-27T09:08:59;98122.13;;;21.41;82.57
20394;BME280;10356;50.544;9.642;2022-08-27T09:11:34;98117.09;;;21.25;83.53
20394;BME280;10356;50.544;9.642;2022-08-27T09:14:06;98115.91;;;21.49;82.19
20394;BME280;10356;50.544;9.642;2022-08-27T09:16:41;98119.41;;;21.77;80.98
20394;BME280;10356;50.544;9.642;2022-08-27T09:19:08;98118.56;;;21.77;80.62
20394;BME280;10356;50.544;9.642;2022-08-27T09:21:46;98110.94;;;21.88;79.46
20394;BME280;10356;50.544;9.642;2022-08-27T09:24:20;98116.63;;;21.85;79.33
20394;BME280;10356;50.544;9.642;2022-08-27T09:26:51;98120.44;;;21.55;80.78
20394;BME280;10356;50.544;9.642;2022-08-27T09:29:18;98123.59;;;21.65;80.44
20394;BME280;10356;50.544;9.642;2022-08-27T09:31:48;98122.31;;;21.82;79.29
20394;BME280;10356;50.544;9.642;2022-08-27T09:34:18;98122.31;;;21.61;80.67
20394;BME280;10356;50.544;9.642;2022-08-27T09:36:52;98121.06;;;21.57;80.17
20394;BME280;10356;50.544;9.642;2022-08-27T09:39:27;98112.44;;;21.76;79.90
20394;BME280;10356;50.544;9.642;2022-08-27T09:41:54;98114.97;;;21.84;78.89
20394;BME280;10356;50.544;9.642;2022-08-27T09:44:21;98111.94;;;21.66;79.32
20394;BME280;10356;50.544;9.642;2022-08-27T09:46:55;98116.84;;;21.20;81.40
20394;BME280;10356;50.544;9.642;2022-08-27T09:49:24;98120.44;;;21.13;82.11
20394;BME280;10356;50.544;9.642;2022-08-27T09:51:53;98117.53;;;21.08;82.49
20394;BME280;10356;50.544;9.642;2022-08-27T09:54:29;98118.97;;;21.31;82.00
20394;BME280;10356;50.544;9.642;2022-08-27T09:56:58;98119.69;;;21.40;80.93
20394;BME280;10356;50.544;9.642;2022-08-27T09:59:26;98108.34;;;21.73;79.19
20394;BME280;10356;50.544;9.642;2022-08-27T10:02:02;98105.25;;;21.91;78.43
20394;BME280;10356;50.544;9.642;2022-08-27T10:04:35;98103.75;;;22.16;76.72
20394;BME280;10356;50.544;9.642;2022-08-27T10:07:21;98103.13;;;22.14;76.18
20394;BME280;10356;50.544;9.642;2022-08-27T10:09:53;98102.50;;;22.12;76.40
20394;BME280;10356;50.544;9.642;2022-08-27T10:12:25;98106.88;;;21.92;76.99
20394;BME280;10356;50.544;9.642;2022-08-27T10:14:57;98101.72;;;22.12;76.54
20394;BME280;10356;50.544;9.642;2022-08-27T10:17:29;98106.25;;;22.18;76.38
20394;BME280;10356;50.544;9.642;2022-08-27T10:20:04;98098.75;;;22.34;75.93
20394;BME280;10356;50.544;9.642;2022-08-27T10:22:42;98102.50;;;22.40;75.37
20394;BME280;10356;50.544;9.642;2022-08-27T10:25:22;98101.88;;;22.44;75.03
20394;BME280;10356;50.544;9.642;2022-08-27T10:27:58;98105.41;;;22.51;75.00
20394;BME280;10356;50.544;9.642;2022-08-27T10:30:40;98102.66;;;22.38;75.18
20394;BME280;10356;50.544;9.642;2022-08-27T10:33:16;98111.16;;;22.21;75.93
20394;BME280;10356;50.544;9.642;2022-08-27T10:35:50;98116.72;;;21.98;76.68
20394;BME280;10356;50.544;9.642;2022-08-27T10:38:30;98110.97;;;21.95;76.70
20394;BME280;10356;50.544;9.642;2022-08-27T10:41:02;98120.91;;;21.86;77.76
20394;BME280;10356;50.544;9.642;2022-08-27T10:47:03;98113.25;;;21.77;77.01
20394;BME280;10356;50.544;9.642;2022-08-27T10:49:38;98125.34;;;21.79;77.15
20394;BME280;10356;50.544;9.642;2022-08-27T10:52:15;98114.09;;;21.77;76.39
20394;BME280;10356;50.544;9.642;2022-08-27T10:54:49;98120.28;;;21.84;76.17
20394;BME280;10356;50.544;9.642;2022-08-27T10:57:24;98120.16;;;21.71;76.41
20394;BME280;10356;50.544;9.642;2022-08-27T10:59:56;98121.44;;;21.75;75.90
20394;BME280;10356;50.544;9.642;2022-08-27T11:02:31;98125.59;;;21.63;76.75
20394;BME280;10356;50.544;9.642;2022-08-27T11:05:03;98119.38;;;21.28;78.79
20394;BME280;10356;50.544;9.642;2022-08-27T11:07:34;98117.22;;;21.38;78.40
20394;BME280;10356;50.544;9.642;2022-08-27T11:10:06;98120.81;;;21.52;77.50
20394;BME280;10356;50.544;9.642;2022-08-27T11:12:37;98129.91;;;21.43;78.03
20394;BME280;10356;50.544;9.642;2022-08-27T11:15:09;98122.81;;;21.50;77.01
20394;BME280;10356;50.544;9.642;2022-08-27T11:17:39;98122.91;;;21.56;76.82
20394;BME280;10356;50.544;9.642;2022-08-27T11:20:11;98127.03;;;21.65;76.52
20394;BME280;10356;50.544;9.642;2022-08-27T11:22:43;98125.84;;;21.68;76.68
20394;BME280;10356;50.544;9.642;2022-08-27T11:25:33;98123.97;;;21.83;75.71
20394;BME280;10356;50.544;9.642;2022-08-27T11:28:04;98132.91;;;21.82;76.15
20394;BME280;10356;50.544;9.642;2022-08-27T11:30:42;98129.19;;;21.77;75.65
20394;BME280;10356;50.544;9.642;2022-08-27T11:33:15;98122.09;;;21.84;75.53
20394;BME280;10356;50.544;9.642;2022-08-27T11:35:55;98128.25;;;21.63;76.59
20394;BME280;10356;50.544;9.642;2022-08-27T11:38:41;98131.97;;;21.68;76.03
20394;BME280;10356;50.544;9.642;2022-08-27T11:43:58;98122.97;;;21.63;76.44
20394;BME280;10356;50.544;9.642;2022-08-27T11:46:27;98131.56;;;21.71;76.47
20394;BME280;10356;50.544;9.642;2022-08-27T11:49:04;98125.06;;;21.74;76.14
20394;BME280;10356;50.544;9.642;2022-08-27T11:51:32;98127.25;;;21.85;75.57
20394;BME280;10356;50.544;9.642;2022-08-27T11:54:01;98128.16;;;21.77;76.29
20394;BME280;10356;50.544;9.642;2022-08-27T11:56:37;98124.97;;;22.10;74.60
20394;BME280;10356;50.544;9.642;2022-08-27T11:59:17;98127.84;;;22.15;73.55
20394;BME280;10356;50.544;9.642;2022-08-27T12:01:45;98126.03;;;22.49;71.42
20394;BME280;10356;50.544;9.642;2022-08-27T12:04:21;98130.09;;;22.45;72.61
20394;BME280;10356;50.544;9.642;2022-08-27T12:06:51;98126.97;;;22.70;72.32
20394;BME280;10356;50.544;9.642;2022-08-27T12:09:20;98126.78;;;22.78;70.90
20394;BME280;10356;50.544;9.642;2022-08-27T12:11:56;98120.41;;;22.66;70.42
20394;BME280;10356;50.544;9.642;2022-08-27T12:14:37;98125.88;;;22.58;70.64
20394;BME280;10356;50.544;9.642;2022-08-27T12:17:12;98129.63;;;22.35;71.21
20394;BME280;10356;50.544;9.642;2022-08-27T12:19:47;98114.34;;;22.44;71.28
20394;BME280;10356;50.544;9.642;2022-08-27T12:22:32;98120.56;;;22.23;72.15
20394;BME280;10356;50.544;9.642;2022-08-27T12:25:24;98123.09;;;22.04;72.72
20394;BME280;10356;50.544;9.642;2022-08-27T12:27:58;98122.56;;;22.15;72.04
20394;BME280;10356;50.544;9.642;2022-08-27T12:30:30;98122.34;;;22.16;72.04
20394;BME280;10356;50.544;9.642;2022-08-27T12:32:59;98118.91;;;22.22;72.12
20394;BME280;10356;50.544;9.642;2022-08-27T12:35:36;98125.47;;;22.26;72.38
20394;BME280;10356;50.544;9.642;2022-08-27T12:38:12;98124.72;;;22.39;71.39
20394;BME280;10356;50.544;9.642;2022-08-27T12:40:44;98124.06;;;22.24;72.23
20394;BME280;10356;50.544;9.642;2022-08-27T12:43:16;98120.16;;;22.26;72.27
20394;BME280;10356;50.544;9.642;2022-08-27T12:45:47;98115.47;;;22.28;71.77
20394;BME280;10356;50.544;9.642;2022-08-27T12:48:18;98116.75;;;22.73;70.25
20394;BME280;10356;50.544;9.642;2022-08-27T12:50:50;98120.50;;;22.92;69.36
20394;BME280;10356;50.544;9.642;2022-08-27T12:53:27;98111.22;;;23.42;68.02
20394;BME280;10356;50.544;9.642;2022-08-27T12:56:14;98117.78;;;23.78;67.07
20394;BME280;10356;50.544;9.642;2022-08-27T12:58:53;98106.75;;;23.55;66.15
20394;BME280;10356;50.544;9.642;2022-08-27T13:01:32;98120.66;;;23.83;64.92
20394;BME280;10356;50.544;9.642;2022-08-27T13:04:00;98112.25;;;23.86;65.37
20394;BME280;10356;50.544;9.642;2022-08-27T13:06:29;98104.28;;;23.60;65.72
20394;BME280;10356;50.544;9.642;2022-08-27T13:08:59;98109.63;;;23.73;66.04
20394;BME280;10356;50.544;9.642;2022-08-27T13:11:27;98102.66;;;23.85;64.76
20394;BME280;10356;50.544;9.642;2022-08-27T13:14:06;98102.44;;;23.87;64.74
20394;BME280;10356;50.544;9.642;2022-08-27T13:16:35;98094.06;;;23.57;65.03
20394;BME280;10356;50.544;9.642;2022-08-27T13:19:03;98100.22;;;23.51;65.82